sensor_id;sensor_type;location;lat;lon;timestamp;temperature;humidity
71551;DHT22;59367;48.414;9.872;2023-08-24T00:00:19;22.15075684;62.03765869
71551;DHT22;59367;48.414;9.872;2023-08-24T00:01:25;22.1374054;61.97967529
71551;DHT22;59367;48.414;9.872;2023-08-24T00:02:30;22.12138367;62.0010376
71551;DHT22;59367;48.414;9.872;2023-08-24T00:03:36;22.1374054;61.97967529
71551;DHT22;59367;48.414;9.872;2023-08-24T00:04:41;22.12138367;61.94610596
71551;DHT22;59367;48.414;9.872;2023-08-24T00:05:47;22.10803223;62.10327148
71551;DHT22;59367;48.414;9.872;2023-08-24T00:06:53;22.08132935;62.04376221
71551;DHT22;59367;48.414;9.872;2023-08-24T00:07:58;22.06530762;62.03308105
71551;DHT22;59367;48.414;9.872;2023-08-24T00:09:04;22.05195618;61.98730469
71551;DHT22;59367;48.414;9.872;2023-08-24T00:10:10;22.06530762;61.99798584
71551;DHT22;59367;48.414;9.872;2023-08-24T00:11:16;22.03860474;62.14294434
71551;DHT22;59367;48.414;9.872;2023-08-24T00:12:21;22.00923157;62.28637695
71551;DHT22;59367;48.414;9.872;2023-08-24T00:13:26;21.99588013;62.25280762
71551;DHT22;59367;48.414;9.872;2023-08-24T00:14:32;21.95315552;62.3626709
71551;DHT22;59367;48.414;9.872;2023-08-24T00:15:37;21.95315552;62.42370605
71551;DHT22;59367;48.414;9.872;2023-08-24T00:16:43;21.95315552;62.45574951
71551;DHT22;59367;48.414;9.872;2023-08-24T00:17:49;21.89707947;62.40386963
71551;DHT22;59367;48.414;9.872;2023-08-24T00:18:54;21.91043091;62.50152588
71551;DHT22;59367;48.414;9.872;2023-08-24T00:20:01;21.88372803;62.50915527
71551;DHT22;59367;48.414;9.872;2023-08-24T00:21:07;21.86503601;62.62054443
71551;DHT22;59367;48.414;9.872;2023-08-24T00:22:12;21.88372803;62.9119873
71551;DHT22;59367;48.414;9.872;2023-08-24T00:23:18;21.85168457;62.90435791
71551;DHT22;59367;48.414;9.872;2023-08-24T00:24:24;21.86503601;63.02337646
71551;DHT22;59367;48.414;9.872;2023-08-24T00:25:29;21.88372803;63.02642822
71551;DHT22;59367;48.414;9.872;2023-08-24T00:26:35;21.85168457;63.09509277
71551;DHT22;59367;48.414;9.872;2023-08-24T00:27:41;21.86503601;63.10882568
71551;DHT22;59367;48.414;9.872;2023-08-24T00:28:46;21.83833313;62.97607422
71551;DHT22;59367;48.414;9.872;2023-08-24T00:29:52;21.83833313;62.77618408
71551;DHT22;59367;48.414;9.872;2023-08-24T00:30:57;21.86503601;62.66174316
71551;DHT22;59367;48.414;9.872;2023-08-24T00:32:03;21.85168457;62.53356934
71551;DHT22;59367;48.414;9.872;2023-08-24T00:33:09;21.82498169;62.51831055
71551;DHT22;59367;48.414;9.872;2023-08-24T00:34:14;21.82498169;62.35961914
71551;DHT22;59367;48.414;9.872;2023-08-24T00:35:20;21.80895996;62.45117188
71551;DHT22;59367;48.414;9.872;2023-08-24T00:36:25;21.76623535;62.42218018
71551;DHT22;59367;48.414;9.872;2023-08-24T00:37:31;21.79560852;62.42828369
71551;DHT22;59367;48.414;9.872;2023-08-24T00:38:36;21.80895996;62.55950928
71551;DHT22;59367;48.414;9.872;2023-08-24T00:39:42;21.73952484;62.45117188
71551;DHT22;59367;48.414;9.872;2023-08-24T00:40:48;21.7261734;62.42675781
71551;DHT22;59367;48.414;9.872;2023-08-24T00:41:53;21.7261734;62.42675781
71551;DHT22;59367;48.414;9.872;2023-08-24T00:42:59;21.68344879;62.49237061
71551;DHT22;59367;48.414;9.872;2023-08-24T00:44:04;21.71015167;62.43286133
71551;DHT22;59367;48.414;9.872;2023-08-24T00:45:11;21.67009735;62.4786377
71551;DHT22;59367;48.414;9.872;2023-08-24T00:46:17;21.65407562;62.550354
71551;DHT22;59367;48.414;9.872;2023-08-24T00:47:22;21.65407562;62.63427734
71551;DHT22;59367;48.414;9.872;2023-08-24T00:48:29;21.64072418;62.67547607
71551;DHT22;59367;48.414;9.872;2023-08-24T00:49:36;21.59799957;62.73040771
71551;DHT22;59367;48.414;9.872;2023-08-24T00:50:41;21.59799957;62.7746582
71551;DHT22;59367;48.414;9.872;2023-08-24T00:51:47;21.61135101;62.82958984
71551;DHT22;59367;48.414;9.872;2023-08-24T00:52:53;21.57129669;62.74719238
71551;DHT22;59367;48.414;9.872;2023-08-24T00:53:58;21.55527496;62.840271
71551;DHT22;59367;48.414;9.872;2023-08-24T00:55:04;21.57129669;63.00048828
71551;DHT22;59367;48.414;9.872;2023-08-24T00:56:11;21.54192352;63.07220459
71551;DHT22;59367;48.414;9.872;2023-08-24T00:57:16;21.54192352;62.98675537
71551;DHT22;59367;48.414;9.872;2023-08-24T00:58:22;21.55527496;62.9776001
71551;DHT22;59367;48.414;9.872;2023-08-24T00:59:28;21.51522064;63.0645752
71551;DHT22;59367;48.414;9.872;2023-08-24T01:00:34;21.52857208;63.19580078
71551;DHT22;59367;48.414;9.872;2023-08-24T01:01:42;21.51522064;63.12866211
71551;DHT22;59367;48.414;9.872;2023-08-24T01:02:50;21.49919891;62.91351318
71551;DHT22;59367;48.414;9.872;2023-08-24T01:03:55;21.51522064;62.76702881
71551;DHT22;59367;48.414;9.872;2023-08-24T01:05:01;21.51522064;62.63275146
71551;DHT22;59367;48.414;9.872;2023-08-24T01:06:07;21.48584747;62.63427734
71551;DHT22;59367;48.414;9.872;2023-08-24T01:07:12;21.44312286;62.57781982
71551;DHT22;59367;48.414;9.872;2023-08-24T01:08:18;21.4564743;62.52441406
71551;DHT22;59367;48.414;9.872;2023-08-24T01:09:24;21.44312286;62.52288818
71551;DHT22;59367;48.414;9.872;2023-08-24T01:10:34;21.41641998;62.550354
71551;DHT22;59367;48.414;9.872;2023-08-24T01:11:54;21.38704681;62.57476807
71551;DHT22;59367;48.414;9.872;2023-08-24T01:13:10;21.38704681;62.61901855
71551;DHT22;59367;48.414;9.872;2023-08-24T01:14:23;21.3443222;62.65258789
71551;DHT22;59367;48.414;9.872;2023-08-24T01:15:37;21.3443222;62.70599365
71551;DHT22;59367;48.414;9.872;2023-08-24T01:16:45;21.3443222;62.73498535
71551;DHT22;59367;48.414;9.872;2023-08-24T01:17:52;21.33097076;62.79754639
71551;DHT22;59367;48.414;9.872;2023-08-24T01:19:01;21.31761932;62.7746582
71551;DHT22;59367;48.414;9.872;2023-08-24T01:20:08;21.28824615;62.76702881
71551;DHT22;59367;48.414;9.872;2023-08-24T01:21:15;21.26154327;62.7532959
71551;DHT22;59367;48.414;9.872;2023-08-24T01:23:46;21.24284363;62.86621094
71551;DHT22;59367;48.414;9.872;2023-08-24T01:25:00;21.24284363;62.95013428
71551;DHT22;59367;48.414;9.872;2023-08-24T01:26:13;21.22949219;63.05541992
71551;DHT22;59367;48.414;9.872;2023-08-24T01:27:20;21.20278931;63.18817139
71551;DHT22;59367;48.414;9.872;2023-08-24T01:28:26;21.18676758;63.24768066
71551;DHT22;59367;48.414;9.872;2023-08-24T01:29:32;21.20278931;63.27362061
71551;DHT22;59367;48.414;9.872;2023-08-24T01:30:39;21.17341614;63.3605957
71551;DHT22;59367;48.414;9.872;2023-08-24T01:31:45;21.18676758;63.41705322
71551;DHT22;59367;48.414;9.872;2023-08-24T01:32:53;21.17341614;63.55285645
71551;DHT22;59367;48.414;9.872;2023-08-24T01:33:59;21.14404297;63.46130371
71551;DHT22;59367;48.414;9.872;2023-08-24T01:35:06;21.14404297;63.55743408
71551;DHT22;59367;48.414;9.872;2023-08-24T01:36:14;21.13069153;63.55438232
71551;DHT22;59367;48.414;9.872;2023-08-24T01:37:20;21.13069153;63.63983154
71551;DHT22;59367;48.414;9.872;2023-08-24T01:38:26;21.13069153;63.671875
71551;DHT22;59367;48.414;9.872;2023-08-24T01:39:40;21.11734009;63.722229
71551;DHT22;59367;48.414;9.872;2023-08-24T01:40:55;21.13069153;63.74511719
71551;DHT22;59367;48.414;9.872;2023-08-24T01:42:05;21.11734009;63.71002197
71551;DHT22;59367;48.414;9.872;2023-08-24T01:43:14;21.10398865;63.70849609
71551;DHT22;59367;48.414;9.872;2023-08-24T01:44:22;21.07461548;63.74511719
71551;DHT22;59367;48.414;9.872;2023-08-24T01:45:32;21.06126404;63.77258301
71551;DHT22;59367;48.414;9.872;2023-08-24T01:46:38;21.08796692;63.80004883
71551;DHT22;59367;48.414;9.872;2023-08-24T01:47:45;21.0479126;63.7512207
71551;DHT22;59367;48.414;9.872;2023-08-24T01:48:54;21.0479126;63.80462646
71551;DHT22;59367;48.414;9.872;2023-08-24T01:50:00;21.06126404;63.85650635
71551;DHT22;59367;48.414;9.872;2023-08-24T01:51:07;21.03189087;63.83209229
71551;DHT22;59367;48.414;9.872;2023-08-24T01:52:14;21.03189087;63.88397217
71551;DHT22;59367;48.414;9.872;2023-08-24T01:53:20;21.01853943;63.91448975
71551;DHT22;59367;48.414;9.872;2023-08-24T01:54:26;21.00518799;63.94195557
71551;DHT22;59367;48.414;9.872;2023-08-24T01:55:32;21.00518799;63.90075684
71551;DHT22;59367;48.414;9.872;2023-08-24T01:56:37;20.97581482;63.93737793
71551;DHT22;59367;48.414;9.872;2023-08-24T01:57:43;21.00518799;63.89160156
71551;DHT22;59367;48.414;9.872;2023-08-24T01:58:49;20.97581482;63.81072998
71551;DHT22;59367;48.414;9.872;2023-08-24T01:59:54;20.98916626;63.81378174
71551;DHT22;59367;48.414;9.872;2023-08-24T02:01:00;20.96246338;63.73291016
71551;DHT22;59367;48.414;9.872;2023-08-24T02:02:06;20.96246338;63.69171143
71551;DHT22;59367;48.414;9.872;2023-08-24T02:03:11;20.94911194;63.7008667
71551;DHT22;59367;48.414;9.872;2023-08-24T02:04:17;20.93309021;63.79089355
71551;DHT22;59367;48.414;9.872;2023-08-24T02:05:23;20.94911194;63.81530762
71551;DHT22;59367;48.414;9.872;2023-08-24T02:06:28;20.90638733;63.82904053
71551;DHT22;59367;48.414;9.872;2023-08-24T02:07:34;20.94911194;63.86871338
71551;DHT22;59367;48.414;9.872;2023-08-24T02:08:40;20.90638733;63.9755249
71551;DHT22;59367;48.414;9.872;2023-08-24T02:09:45;20.90638733;64.10369873
71551;DHT22;59367;48.414;9.872;2023-08-24T02:10:51;20.87701416;64.10827637
71551;DHT22;59367;48.414;9.872;2023-08-24T02:11:57;20.87701416;64.2578125
71551;DHT22;59367;48.414;9.872;2023-08-24T02:13:03;20.8903656;64.17236328
71551;DHT22;59367;48.414;9.872;2023-08-24T02:14:08;20.86366272;64.04266357
71551;DHT22;59367;48.414;9.872;2023-08-24T02:15:14;20.86366272;63.93737793
71551;DHT22;59367;48.414;9.872;2023-08-24T02:16:20;20.87701416;63.96026611
71551;DHT22;59367;48.414;9.872;2023-08-24T02:17:26;20.85031128;63.89312744
71551;DHT22;59367;48.414;9.872;2023-08-24T02:18:31;20.85031128;63.78631592
71551;DHT22;59367;48.414;9.872;2023-08-24T02:19:37;20.83428955;63.722229
71551;DHT22;59367;48.414;9.872;2023-08-24T02:20:43;20.83428955;63.68713379
71551;DHT22;59367;48.414;9.872;2023-08-24T02:21:49;20.82093811;63.60015869
71551;DHT22;59367;48.414;9.872;2023-08-24T02:22:55;20.80758667;63.57727051
71551;DHT22;59367;48.414;9.872;2023-08-24T02:24:00;20.82093811;63.65509033
71551;DHT22;59367;48.414;9.872;2023-08-24T02:25:09;20.79423523;63.52233887
71551;DHT22;59367;48.414;9.872;2023-08-24T02:26:15;20.7782135;63.48876953
71551;DHT22;59367;48.414;9.872;2023-08-24T02:27:20;20.76486206;63.54827881
71551;DHT22;59367;48.414;9.872;2023-08-24T02:28:26;20.73548126;63.60778809
71551;DHT22;59367;48.414;9.872;2023-08-24T02:29:32;20.72212982;63.77258301
71551;DHT22;59367;48.414;9.872;2023-08-24T02:30:39;20.75151062;63.76800537
71551;DHT22;59367;48.414;9.872;2023-08-24T02:31:45;20.72212982;63.79241943
71551;DHT22;59367;48.414;9.872;2023-08-24T02:32:52;20.69542694;63.81072998
71551;DHT22;59367;48.414;9.872;2023-08-24T02:33:57;20.70877838;63.96179199
71551;DHT22;59367;48.414;9.872;2023-08-24T02:35:03;20.69542694;63.9251709
71551;DHT22;59367;48.414;9.872;2023-08-24T02:36:09;20.67940521;63.99841309
71551;DHT22;59367;48.414;9.872;2023-08-24T02:37:15;20.69542694;64.11590576
71551;DHT22;59367;48.414;9.872;2023-08-24T02:38:21;20.67940521;64.01672363
71551;DHT22;59367;48.414;9.872;2023-08-24T02:39:26;20.65003204;63.96026611
71551;DHT22;59367;48.414;9.872;2023-08-24T02:40:32;20.65003204;63.8458252
71551;DHT22;59367;48.414;9.872;2023-08-24T02:41:37;20.6366806;63.81072998
71551;DHT22;59367;48.414;9.872;2023-08-24T02:42:43;20.6366806;63.73596191
71551;DHT22;59367;48.414;9.872;2023-08-24T02:43:49;20.6366806;63.7588501
71551;DHT22;59367;48.414;9.872;2023-08-24T02:44:54;20.59395599;63.71917725
71551;DHT22;59367;48.414;9.872;2023-08-24T02:46:05;20.57793427;63.73596191
71551;DHT22;59367;48.414;9.872;2023-08-24T02:47:11;20.56458282;63.74511719
71551;DHT22;59367;48.414;9.872;2023-08-24T02:48:16;20.57793427;63.68255615
71551;DHT22;59367;48.414;9.872;2023-08-24T02:49:22;20.59395599;63.67645264
71551;DHT22;59367;48.414;9.872;2023-08-24T02:50:28;20.56458282;63.722229
71551;DHT22;59367;48.414;9.872;2023-08-24T02:51:33;20.56458282;63.79699707
71551;DHT22;59367;48.414;9.872;2023-08-24T02:52:39;20.55123138;63.82446289
71551;DHT22;59367;48.414;9.872;2023-08-24T02:53:44;20.55123138;63.96179199
71551;DHT22;59367;48.414;9.872;2023-08-24T02:54:50;20.52185822;64.01977539
71551;DHT22;59367;48.414;9.872;2023-08-24T02:55:56;20.50850677;64.07012939
71551;DHT22;59367;48.414;9.872;2023-08-24T02:57:01;20.50850677;64.14337158
71551;DHT22;59367;48.414;9.872;2023-08-24T02:58:07;20.49515533;64.19372559
71551;DHT22;59367;48.414;9.872;2023-08-24T02:59:13;20.45243073;64.23950195
71551;DHT22;59367;48.414;9.872;2023-08-24T03:00:19;20.46578217;64.17999268
71551;DHT22;59367;48.414;9.872;2023-08-24T03:01:25;20.43907928;64.13116455
71551;DHT22;59367;48.414;9.872;2023-08-24T03:02:30;20.45243073;64.15405273
71551;DHT22;59367;48.414;9.872;2023-08-24T03:03:37;20.40970612;64.16778564
71551;DHT22;59367;48.414;9.872;2023-08-24T03:04:43;20.42305756;64.19067383
71551;DHT22;59367;48.414;9.872;2023-08-24T03:05:58;20.40970612;64.29443359
71551;DHT22;59367;48.414;9.872;2023-08-24T03:07:04;20.40970612;64.27307129
71551;DHT22;59367;48.414;9.872;2023-08-24T03:08:09;20.39635468;64.22729492
71551;DHT22;59367;48.414;9.872;2023-08-24T03:09:15;20.38300323;64.30969238
71551;DHT22;59367;48.414;9.872;2023-08-24T03:10:21;20.38300323;64.36309814
71551;DHT22;59367;48.414;9.872;2023-08-24T03:11:26;20.38300323;64.33258057
71551;DHT22;59367;48.414;9.872;2023-08-24T03:12:32;20.36698151;64.27612305
71551;DHT22;59367;48.414;9.872;2023-08-24T03:13:38;20.34027863;64.33258057
71551;DHT22;59367;48.414;9.872;2023-08-24T03:14:44;20.35363007;64.38751221
71551;DHT22;59367;48.414;9.872;2023-08-24T03:15:50;20.29755402;64.41040039
71551;DHT22;59367;48.414;9.872;2023-08-24T03:16:55;20.32692719;64.3951416
71551;DHT22;59367;48.414;9.872;2023-08-24T03:18:01;20.29755402;64.45159912
71551;DHT22;59367;48.414;9.872;2023-08-24T03:19:07;20.29755402;64.49584961
71551;DHT22;59367;48.414;9.872;2023-08-24T03:20:13;20.31090546;64.55078125
71551;DHT22;59367;48.414;9.872;2023-08-24T03:21:19;20.31090546;64.50653076
71551;DHT22;59367;48.414;9.872;2023-08-24T03:22:24;20.26818085;64.43786621
71551;DHT22;59367;48.414;9.872;2023-08-24T03:23:30;20.26818085;64.45922852
71551;DHT22;59367;48.414;9.872;2023-08-24T03:24:36;20.28420258;64.40887451
71551;DHT22;59367;48.414;9.872;2023-08-24T03:25:42;20.24147034;64.4241333
71551;DHT22;59367;48.414;9.872;2023-08-24T03:26:48;20.2281189;64.46380615
71551;DHT22;59367;48.414;9.872;2023-08-24T03:27:53;20.19874573;64.4821167
71551;DHT22;59367;48.414;9.872;2023-08-24T03:28:59;20.24147034;64.51873779
71551;DHT22;59367;48.414;9.872;2023-08-24T03:30:05;20.24147034;64.5614624
71551;DHT22;59367;48.414;9.872;2023-08-24T03:31:11;20.21209717;64.61029053
71551;DHT22;59367;48.414;9.872;2023-08-24T03:32:17;20.17204285;64.59197998
71551;DHT22;59367;48.414;9.872;2023-08-24T03:33:23;20.19874573;64.6484375
71551;DHT22;59367;48.414;9.872;2023-08-24T03:34:28;20.18539429;64.62554932
71551;DHT22;59367;48.414;9.872;2023-08-24T03:35:35;20.17204285;64.61181641
71551;DHT22;59367;48.414;9.872;2023-08-24T03:36:40;20.18539429;64.6987915
71551;DHT22;59367;48.414;9.872;2023-08-24T03:37:46;20.15602112;64.63012695
71551;DHT22;59367;48.414;9.872;2023-08-24T03:38:52;20.18539429;64.62554932
71551;DHT22;59367;48.414;9.872;2023-08-24T03:39:57;20.17204285;64.60266113
71551;DHT22;59367;48.414;9.872;2023-08-24T03:41:06;20.15602112;64.63012695
71551;DHT22;59367;48.414;9.872;2023-08-24T03:42:12;20.17204285;64.61181641
71551;DHT22;59367;48.414;9.872;2023-08-24T03:43:17;20.15602112;64.49279785
71551;DHT22;59367;48.414;9.872;2023-08-24T03:44:23;20.15602112;64.4744873
71551;DHT22;59367;48.414;9.872;2023-08-24T03:45:29;20.14266968;64.51416016
71551;DHT22;59367;48.414;9.872;2023-08-24T03:46:34;20.15602112;64.56604004
71551;DHT22;59367;48.414;9.872;2023-08-24T03:47:40;20.12931824;64.47906494
71551;DHT22;59367;48.414;9.872;2023-08-24T03:48:46;20.12931824;64.50042725
71551;DHT22;59367;48.414;9.872;2023-08-24T03:49:52;20.09994507;64.53857422
71551;DHT22;59367;48.414;9.872;2023-08-24T03:50:58;20.09994507;64.66522217
71551;DHT22;59367;48.414;9.872;2023-08-24T03:52:04;20.11329651;64.61486816
71551;DHT22;59367;48.414;9.872;2023-08-24T03:53:10;20.11329651;64.72015381
71551;DHT22;59367;48.414;9.872;2023-08-24T03:54:15;20.11329651;64.793396
71551;DHT22;59367;48.414;9.872;2023-08-24T03:55:21;20.08659363;64.85290527
71551;DHT22;59367;48.414;9.872;2023-08-24T03:56:27;20.09994507;64.69726563
71551;DHT22;59367;48.414;9.872;2023-08-24T03:57:33;20.07324219;64.69268799
71551;DHT22;59367;48.414;9.872;2023-08-24T03:58:39;20.08659363;64.69421387
71551;DHT22;59367;48.414;9.872;2023-08-24T03:59:45;20.07324219;64.88189697
71551;DHT22;59367;48.414;9.872;2023-08-24T04:00:50;20.07324219;64.90325928
71551;DHT22;59367;48.414;9.872;2023-08-24T04:01:56;20.07324219;65.00854492
71551;DHT22;59367;48.414;9.872;2023-08-24T04:03:02;20.04386902;64.99176025
71551;DHT22;59367;48.414;9.872;2023-08-24T04:04:08;20.05722046;64.77203369
71551;DHT22;59367;48.414;9.872;2023-08-24T04:05:13;20.04386902;64.54162598
71551;DHT22;59367;48.414;9.872;2023-08-24T04:06:20;20.04386902;64.47753906
71551;DHT22;59367;48.414;9.872;2023-08-24T04:07:25;20.03051758;64.32647705
71551;DHT22;59367;48.414;9.872;2023-08-24T04:08:31;20.03051758;64.35852051
71551;DHT22;59367;48.414;9.872;2023-08-24T04:09:36;20.01449585;64.31427002
71551;DHT22;59367;48.414;9.872;2023-08-24T04:10:42;20.03051758;64.30511475
71551;DHT22;59367;48.414;9.872;2023-08-24T04:11:48;20.00114441;64.2364502
71551;DHT22;59367;48.414;9.872;2023-08-24T04:12:53;20.00114441;64.27154541
71551;DHT22;59367;48.414;9.872;2023-08-24T04:13:59;19.97444153;64.29595947
71551;DHT22;59367;48.414;9.872;2023-08-24T04:15:05;19.98779297;64.35394287
71551;DHT22;59367;48.414;9.872;2023-08-24T04:16:11;19.98779297;64.35394287
71551;DHT22;59367;48.414;9.872;2023-08-24T04:17:16;19.94239807;64.28222656
71551;DHT22;59367;48.414;9.872;2023-08-24T04:18:22;19.9584198;64.36767578
71551;DHT22;59367;48.414;9.872;2023-08-24T04:19:27;19.92904663;64.36309814
71551;DHT22;59367;48.414;9.872;2023-08-24T04:20:33;19.94239807;64.34631348
71551;DHT22;59367;48.414;9.872;2023-08-24T04:21:39;19.94239807;64.27154541
71551;DHT22;59367;48.414;9.872;2023-08-24T04:22:44;19.94239807;64.19830322
71551;DHT22;59367;48.414;9.872;2023-08-24T04:23:50;19.92904663;64.30969238
71551;DHT22;59367;48.414;9.872;2023-08-24T04:24:55;19.89967346;64.49584961
71551;DHT22;59367;48.414;9.872;2023-08-24T04:26:01;19.88632202;64.54772949
71551;DHT22;59367;48.414;9.872;2023-08-24T04:27:06;19.89967346;64.57977295
71551;DHT22;59367;48.414;9.872;2023-08-24T04:28:12;19.87297058;64.73388672
71551;DHT22;59367;48.414;9.872;2023-08-24T04:29:18;19.87297058;64.82696533
71551;DHT22;59367;48.414;9.872;2023-08-24T04:30:23;19.85694885;64.84832764
71551;DHT22;59367;48.414;9.872;2023-08-24T04:31:29;19.87297058;64.89105225
71551;DHT22;59367;48.414;9.872;2023-08-24T04:32:35;19.83024597;64.68505859
71551;DHT22;59367;48.414;9.872;2023-08-24T04:33:40;19.84359741;64.68811035
71551;DHT22;59367;48.414;9.872;2023-08-24T04:34:46;19.84359741;64.66674805
71551;DHT22;59367;48.414;9.872;2023-08-24T04:35:52;19.83024597;64.68505859
71551;DHT22;59367;48.414;9.872;2023-08-24T04:36:58;19.83024597;64.71710205
71551;DHT22;59367;48.414;9.872;2023-08-24T04:38:03;19.78752136;64.64691162
71551;DHT22;59367;48.414;9.872;2023-08-24T04:39:09;19.81689453;64.66217041
71551;DHT22;59367;48.414;9.872;2023-08-24T04:40:15;19.8008728;64.62860107
71551;DHT22;59367;48.414;9.872;2023-08-24T04:41:21;19.76081848;64.66522217
71551;DHT22;59367;48.414;9.872;2023-08-24T04:42:26;19.76081848;64.67437744
71551;DHT22;59367;48.414;9.872;2023-08-24T04:43:32;19.74478912;64.72473145
71551;DHT22;59367;48.414;9.872;2023-08-24T04:44:38;19.74478912;64.7354126
71551;DHT22;59367;48.414;9.872;2023-08-24T04:45:45;19.77416992;64.86663818
71551;DHT22;59367;48.414;9.872;2023-08-24T04:46:50;19.73143768;64.9230957
71551;DHT22;59367;48.414;9.872;2023-08-24T04:47:56;19.73143768;64.98565674
71551;DHT22;59367;48.414;9.872;2023-08-24T04:49:02;19.71808624;65.00549316
71551;DHT22;59367;48.414;9.872;2023-08-24T04:50:08;19.71808624;65.08789063
71551;DHT22;59367;48.414;9.872;2023-08-24T04:51:14;19.70206451;65.23284912
71551;DHT22;59367;48.414;9.872;2023-08-24T04:52:20;19.71808624;65.26641846
71551;DHT22;59367;48.414;9.872;2023-08-24T04:53:25;19.70206451;65.26489258
71551;DHT22;59367;48.414;9.872;2023-08-24T04:54:32;19.71808624;65.28778076
71551;DHT22;59367;48.414;9.872;2023-08-24T04:55:38;19.71808624;65.33966064
71551;DHT22;59367;48.414;9.872;2023-08-24T04:56:44;19.71808624;65.31066895
71551;DHT22;59367;48.414;9.872;2023-08-24T04:57:49;19.70206451;65.284729
71551;DHT22;59367;48.414;9.872;2023-08-24T04:58:59;19.73143768;65.27862549
71551;DHT22;59367;48.414;9.872;2023-08-24T05:00:05;19.74478912;65.28015137
71551;DHT22;59367;48.414;9.872;2023-08-24T05:01:11;19.76081848;65.36712646
71551;DHT22;59367;48.414;9.872;2023-08-24T05:02:17;19.74478912;65.30303955
71551;DHT22;59367;48.414;9.872;2023-08-24T05:03:22;19.76081848;65.19165039
71551;DHT22;59367;48.414;9.872;2023-08-24T05:04:28;19.78752136;65.28778076
71551;DHT22;59367;48.414;9.872;2023-08-24T05:05:35;19.77416992;65.30761719
71551;DHT22;59367;48.414;9.872;2023-08-24T05:06:41;19.8008728;65.28930664
71551;DHT22;59367;48.414;9.872;2023-08-24T05:07:47;19.78752136;65.38391113
71551;DHT22;59367;48.414;9.872;2023-08-24T05:08:52;19.81689453;65.52581787
71551;DHT22;59367;48.414;9.872;2023-08-24T05:09:58;19.81689453;65.63110352
71551;DHT22;59367;48.414;9.872;2023-08-24T05:11:13;19.83024597;65.72723389
71551;DHT22;59367;48.414;9.872;2023-08-24T05:12:19;19.84359741;65.7409668
71551;DHT22;59367;48.414;9.872;2023-08-24T05:13:25;19.87297058;65.85083008
71551;DHT22;59367;48.414;9.872;2023-08-24T05:14:31;19.88632202;65.75622559
71551;DHT22;59367;48.414;9.872;2023-08-24T05:15:37;19.91569519;65.59448242
71551;DHT22;59367;48.414;9.872;2023-08-24T05:16:42;19.94239807;65.42053223
71551;DHT22;59367;48.414;9.872;2023-08-24T05:17:48;19.9584198;65.43121338
71551;DHT22;59367;48.414;9.872;2023-08-24T05:18:53;19.98779297;65.3717041
71551;DHT22;59367;48.414;9.872;2023-08-24T05:19:59;20.03051758;65.46325684
71551;DHT22;59367;48.414;9.872;2023-08-24T05:21:05;20.07324219;65.7333374
71551;DHT22;59367;48.414;9.872;2023-08-24T05:22:11;20.09994507;65.7913208
71551;DHT22;59367;48.414;9.872;2023-08-24T05:23:17;20.12931824;65.83862305
71551;DHT22;59367;48.414;9.872;2023-08-24T05:24:23;20.18539429;65.85998535
71551;DHT22;59367;48.414;9.872;2023-08-24T05:25:28;20.21209717;65.71502686
71551;DHT22;59367;48.414;9.872;2023-08-24T05:26:34;20.24147034;65.62347412
71551;DHT22;59367;48.414;9.872;2023-08-24T05:27:39;20.28420258;65.60974121
71551;DHT22;59367;48.414;9.872;2023-08-24T05:28:45;20.32692719;65.66009521
71551;DHT22;59367;48.414;9.872;2023-08-24T05:29:51;20.38300323;65.57617188
71551;DHT22;59367;48.414;9.872;2023-08-24T05:30:57;20.43907928;65.47088623
71551;DHT22;59367;48.414;9.872;2023-08-24T05:32:03;20.49515533;65.61889648
71551;DHT22;59367;48.414;9.872;2023-08-24T05:33:09;20.50850677;65.56854248
71551;DHT22;59367;48.414;9.872;2023-08-24T05:34:14;20.57793427;65.6036377
71551;DHT22;59367;48.414;9.872;2023-08-24T05:35:20;20.60730743;65.49377441
71551;DHT22;59367;48.414;9.872;2023-08-24T05:36:26;20.65003204;65.61737061
71551;DHT22;59367;48.414;9.872;2023-08-24T05:37:31;20.70877838;65.51208496
71551;DHT22;59367;48.414;9.872;2023-08-24T05:38:37;20.76486206;65.55480957
71551;DHT22;59367;48.414;9.872;2023-08-24T05:39:42;20.80758667;65.40374756
71551;DHT22;59367;48.414;9.872;2023-08-24T05:40:50;20.82093811;65.36560059
71551;DHT22;59367;48.414;9.872;2023-08-24T05:41:55;20.8903656;65.28320313
71551;DHT22;59367;48.414;9.872;2023-08-24T05:43:01;20.93309021;65.35644531
71551;DHT22;59367;48.414;9.872;2023-08-24T05:44:06;20.91973877;65.13214111
71551;DHT22;59367;48.414;9.872;2023-08-24T05:45:12;20.98916626;64.9230957
71551;DHT22;59367;48.414;9.872;2023-08-24T05:46:18;21.01853943;64.88647461
71551;DHT22;59367;48.414;9.872;2023-08-24T05:47:24;21.07461548;64.83459473
71551;DHT22;59367;48.414;9.872;2023-08-24T05:48:29;21.07461548;64.67590332
71551;DHT22;59367;48.414;9.872;2023-08-24T05:49:35;21.13069153;64.61029053
71551;DHT22;59367;48.414;9.872;2023-08-24T05:50:45;21.17341614;64.47296143
71551;DHT22;59367;48.414;9.872;2023-08-24T05:51:53;21.21614075;64.43786621
71551;DHT22;59367;48.414;9.872;2023-08-24T05:52:59;21.22949219;64.56604004
71551;DHT22;59367;48.414;9.872;2023-08-24T05:54:05;21.26154327;64.2868042